createdAt,value
2023-05-10T00:03:34.111Z,100481.56
2023-05-10T00:13:35.962Z,100475.72
2023-05-10T00:23:37.760Z,100476.66
2023-05-10T00:33:45.651Z,100473.28
2023-05-10T00:43:48.743Z,100472.47
2023-05-10T00:53:52.595Z,100475.06
2023-05-10T01:03:57.013Z,100461.31
2023-05-10T01:13:59.621Z,100457.88
2023-05-10T01:24:23.140Z,100459.56
2023-05-10T01:35:03.980Z,100448.38
2023-05-10T01:45:26.785Z,100450.06
2023-05-10T01:55:35.853Z,100450.00
2023-05-10T02:05:45.617Z,100437.91
2023-05-10T02:15:51.985Z,100432.66
2023-05-10T02:26:07.735Z,100429.13
2023-05-10T02:36:11.677Z,100429.06
2023-05-10T02:46:13.579Z,100427.31
2023-05-10T02:56:30.000Z,100431.63
2023-05-10T03:06:32.527Z,100439.44
2023-05-10T03:16:48.076Z,100429.09
2023-05-10T03:26:51.726Z,100426.63
2023-05-10T03:36:53.618Z,100428.34
2023-05-10T03:46:59.296Z,100437.88
2023-05-10T03:57:02.053Z,100430.13
2023-05-10T04:07:05.088Z,100430.75
2023-05-10T04:17:06.957Z,100424.56
2023-05-10T04:27:14.853Z,100429.91
2023-05-10T04:37:16.638Z,100429.22
2023-05-10T04:47:21.530Z,100430.09
2023-05-10T04:57:23.418Z,100429.25
2023-05-10T05:07:27.691Z,100438.53
2023-05-10T05:17:32.619Z,100435.88
2023-05-10T05:27:34.730Z,100439.34
2023-05-10T05:37:36.606Z,100451.69
2023-05-10T05:47:38.211Z,100460.28
2023-05-10T05:57:39.935Z,100463.91
2023-05-10T06:07:43.928Z,100470.78
2023-05-10T06:17:48.406Z,100469.94
2023-05-10T06:27:53.682Z,100462.59
2023-05-10T06:37:56.224Z,100481.19
2023-05-10T06:47:57.968Z,100485.53
2023-05-10T06:58:00.795Z,100471.00
2023-05-10T07:08:02.851Z,100474.31
2023-05-10T07:18:05.700Z,100472.97
2023-05-10T07:28:08.706Z,100470.28
2023-05-10T07:38:16.292Z,100461.41
2023-05-10T07:48:17.997Z,100458.16
2023-05-10T07:58:20.420Z,100451.34
2023-05-10T08:08:25.319Z,100452.25
2023-05-10T08:18:27.145Z,100470.97
2023-05-10T08:28:28.874Z,100465.41
2023-05-10T08:38:30.815Z,100470.50
2023-05-10T08:48:35.479Z,100458.53
2023-05-10T08:58:39.255Z,100464.16
2023-05-10T09:08:42.782Z,100453.03
2023-05-10T09:18:46.721Z,100456.50
2023-05-10T09:28:52.508Z,100445.81
2023-05-10T09:39:01.591Z,100445.13
2023-05-10T09:49:03.242Z,100435.94
2023-05-10T09:59:05.934Z,100434.53
2023-05-10T10:09:08.966Z,100423.03
2023-05-10T10:19:11.399Z,100408.78
2023-05-10T10:29:28.514Z,100394.47
2023-05-10T10:39:32.580Z,100391.47
2023-05-10T10:49:40.164Z,100384.81
2023-05-10T10:59:45.642Z,100384.03
2023-05-10T11:09:48.499Z,100359.53
2023-05-10T11:20:10.781Z,100348.81
2023-05-10T11:30:14.053Z,100347.81
2023-05-10T11:40:30.953Z,100338.38
2023-05-10T11:50:33.981Z,100341.09
2023-05-10T12:00:36.772Z,100330.75
2023-05-10T12:10:40.051Z,100330.16
2023-05-10T12:20:42.623Z,100330.50
2023-05-10T12:30:46.094Z,100327.06
2023-05-10T12:40:49.935Z,100317.19
2023-05-10T12:50:57.584Z,100297.19
2023-05-10T13:01:01.324Z,100290.50
2023-05-10T13:11:04.247Z,100288.00
2023-05-10T13:21:06.457Z,100270.31
2023-05-10T13:31:09.539Z,100256.13
2023-05-10T13:41:12.229Z,100243.19
2023-05-10T13:51:14.766Z,100243.25
2023-05-10T14:01:16.393Z,100230.06
2023-05-10T14:11:18.597Z,100219.84
2023-05-10T14:21:21.576Z,100219.38
2023-05-10T14:31:25.583Z,100222.69
2023-05-10T14:41:27.313Z,100215.47
2023-05-10T14:51:28.999Z,100217.59
2023-05-10T15:01:37.862Z,100217.13
2023-05-10T15:11:40.072Z,100223.78
2023-05-10T15:21:44.449Z,100203.00
2023-05-10T15:31:48.144Z,100206.16
2023-05-10T15:41:49.889Z,100202.94
2023-05-10T15:51:51.646Z,100203.59
2023-05-10T16:02:02.326Z,100206.19
2023-05-10T16:12:08.593Z,100203.19
2023-05-10T16:22:10.430Z,100208.53
2023-05-10T16:32:14.710Z,100205.53
2023-05-10T16:42:16.499Z,100209.81
2023-05-10T16:52:18.465Z,100212.78
2023-05-10T17:02:30.325Z,100227.13
2023-05-10T17:12:32.315Z,100227.69
2023-05-10T17:22:34.121Z,100231.38
2023-05-10T17:32:35.950Z,100241.50
2023-05-10T17:42:37.764Z,100242.69
2023-05-10T17:52:39.705Z,100250.31
2023-05-10T18:02:42.653Z,100263.72
2023-05-10T18:12:46.484Z,100260.41
2023-05-10T18:22:48.205Z,100269.00
2023-05-10T18:32:50.216Z,100283.56
2023-05-10T18:42:53.101Z,100277.09
2023-05-10T18:52:57.769Z,100294.66
2023-05-10T19:03:02.653Z,100296.53
2023-05-10T19:13:13.027Z,100303.81
2023-05-10T19:23:16.889Z,100309.00
2023-05-10T19:33:49.680Z,100309.88
2023-05-10T19:43:52.227Z,100309.81
2023-05-10T19:53:55.751Z,100306.41
2023-05-10T20:04:01.053Z,100297.91
2023-05-10T20:14:05.086Z,100305.13
2023-05-10T20:24:11.366Z,100297.25
2023-05-10T20:34:13.697Z,100299.06
2023-05-10T20:54:49.080Z,100306.16
2023-05-10T21:04:57.988Z,100304.50
2023-05-10T21:14:59.980Z,100306.28
2023-05-10T21:25:02.257Z,100302.13
2023-05-10T21:35:05.532Z,100301.53
2023-05-10T21:45:08.064Z,100305.97
2023-05-10T21:55:10.137Z,100298.31
2023-05-10T22:05:11.804Z,100300.19
2023-05-10T22:15:13.632Z,100315.88
2023-05-10T22:25:15.564Z,100317.75
2023-05-10T22:35:17.570Z,100312.84
2023-05-10T22:45:21.865Z,100314.19
2023-05-10T22:55:25.821Z,100328.59
2023-05-10T23:05:43.118Z,100327.34
2023-05-10T23:15:46.014Z,100324.75
2023-05-10T23:25:54.050Z,100330.97
2023-05-10T23:36:00.944Z,100330.94
2023-05-10T23:46:02.799Z,100341.34
2023-05-10T23:56:05.337Z,100346.50
